Terminal Aerodrome Forecast
Issued by NWS

Home | Current Version | Previous Version | Text Only | Print | Product List | Glossary On
Versions: 1 2 3 4 5 6 7 8 9 10 11 12 13 14
000
FTUS46 KSGX 250520
TAFSNA
TAF
KSNA 250520Z 2506/2606 VRB05KT P6SM SCT020 BKN030 OVC035
     FM251600 19010G15KT P6SM SCT020 OVC030
     FM252000 22010G15KT P6SM VCSH SCT015 OVC030
     FM260000 26010G15KT P6SM VCSH OVC025
     FM260300 28010G15KT P6SM VCSH BKN030 OVC045=

USA.gov is the U.S. government's official web portal to all federal, state and local government web resources and services.